createdAt,value
2018-09-09T00:00:56.458Z,54.37
2018-09-09T00:03:26.047Z,54.63
2018-09-09T00:05:55.808Z,54.82
2018-09-09T00:08:25.021Z,54.25
2018-09-09T00:10:54.596Z,54.47
2018-09-09T00:13:24.020Z,54.78
2018-09-09T00:15:53.619Z,54.93
2018-09-09T00:18:23.025Z,56.04
2018-09-09T00:20:52.508Z,56.53
2018-09-09T00:23:22.032Z,56.98
2018-09-09T00:25:51.365Z,56.26
2018-09-09T00:28:20.781Z,56.25
2018-09-09T00:30:50.297Z,56.16
2018-09-09T00:33:19.844Z,56.15
2018-09-09T00:35:49.245Z,56.29
2018-09-09T00:38:18.568Z,56.07
2018-09-09T00:40:48.254Z,55.94
2018-09-09T00:43:17.656Z,55.88
2018-09-09T00:45:46.953Z,56.58
2018-09-09T00:48:16.271Z,57.52
2018-09-09T00:50:50.981Z,56.80
2018-09-09T00:53:25.811Z,57.53
2018-09-09T00:55:55.452Z,58.00
2018-09-09T00:58:25.024Z,58.18
2018-09-09T01:00:59.957Z,57.66
2018-09-09T01:03:30.385Z,58.03
2018-09-09T01:05:59.842Z,58.19
2018-09-09T01:08:29.334Z,58.05
2018-09-09T01:10:58.775Z,58.47
2018-09-09T01:13:28.222Z,58.85
2018-09-09T01:15:57.802Z,58.58
2018-09-09T01:18:27.202Z,58.36
2018-09-09T01:20:56.706Z,58.95
2018-09-09T01:23:26.155Z,58.57
2018-09-09T01:25:55.823Z,58.25
2018-09-09T01:28:25.629Z,57.61
2018-09-09T01:30:55.338Z,58.09
2018-09-09T01:33:25.224Z,58.43
2018-09-09T01:35:54.860Z,59.26
2018-09-09T01:38:24.326Z,59.86
2018-09-09T01:40:53.970Z,59.75
2018-09-09T01:43:24.458Z,59.44
2018-09-09T01:45:54.106Z,59.97
2018-09-09T01:48:24.633Z,59.72
2018-09-09T01:50:54.249Z,59.57
2018-09-09T01:53:23.694Z,59.45
2018-09-09T01:55:53.195Z,59.54
2018-09-09T01:58:23.626Z,59.57
2018-09-09T02:00:53.082Z,58.88
2018-09-09T02:03:22.577Z,60.45
2018-09-09T02:05:52.084Z,60.21
2018-09-09T02:08:21.488Z,59.81
2018-09-09T02:10:50.932Z,59.38
2018-09-09T02:13:20.495Z,59.09
2018-09-09T02:15:49.963Z,58.83
2018-09-09T02:18:19.337Z,58.99
2018-09-09T02:20:48.870Z,59.32
2018-09-09T02:23:18.364Z,58.87
2018-09-09T02:25:47.817Z,58.42
2018-09-09T02:28:17.317Z,58.17
2018-09-09T02:30:46.786Z,58.41
2018-09-09T02:33:16.224Z,59.18
2018-09-09T02:35:45.831Z,59.74
2018-09-09T02:38:15.251Z,59.50
2018-09-09T02:40:44.678Z,60.06
2018-09-09T02:43:13.983Z,59.96
2018-09-09T02:45:43.502Z,59.97
2018-09-09T02:48:13.152Z,59.37
2018-09-09T02:50:42.858Z,59.73
2018-09-09T02:53:12.462Z,58.98
2018-09-09T02:55:45.243Z,58.53
2018-09-09T02:58:16.468Z,59.28
2018-09-09T03:00:46.783Z,59.27
2018-09-09T03:03:16.316Z,58.99
2018-09-09T03:05:46.026Z,58.38
2018-09-09T03:08:15.427Z,59.08
2018-09-09T03:10:45.139Z,59.65
2018-09-09T03:13:14.536Z,59.73
2018-09-09T03:15:44.022Z,58.90
2018-09-09T03:18:13.447Z,59.52
2018-09-09T03:20:42.837Z,59.80
2018-09-09T03:23:12.294Z,60.07
2018-09-09T03:25:41.835Z,59.76
2018-09-09T03:28:11.257Z,59.82
2018-09-09T03:30:40.863Z,59.37
2018-09-09T03:33:10.274Z,59.63
2018-09-09T03:35:39.722Z,60.12
2018-09-09T03:38:09.171Z,60.58
2018-09-09T03:40:38.780Z,61.01
2018-09-09T03:43:08.132Z,60.66
2018-09-09T03:45:37.681Z,60.25
2018-09-09T03:48:07.098Z,60.20
2018-09-09T03:50:36.459Z,60.76
2018-09-09T03:53:05.927Z,60.45
2018-09-09T03:55:35.394Z,59.80
2018-09-09T03:58:04.694Z,60.27
2018-09-09T04:00:35.017Z,60.73
2018-09-09T04:03:04.419Z,60.94
2018-09-09T04:05:33.924Z,61.64
2018-09-09T04:08:03.325Z,62.05
2018-09-09T04:10:32.834Z,61.93
2018-09-09T04:13:02.174Z,61.36
2018-09-09T04:15:31.500Z,62.27
2018-09-09T04:18:00.995Z,61.91
2018-09-09T04:20:30.540Z,62.08
2018-09-09T04:22:59.878Z,61.45
2018-09-09T04:25:29.445Z,61.94
2018-09-09T04:27:58.746Z,62.16
2018-09-09T04:30:28.460Z,61.97
2018-09-09T04:32:57.850Z,61.89
2018-09-09T04:35:27.247Z,61.76
2018-09-09T04:37:56.687Z,61.33
2018-09-09T04:40:26.267Z,61.32
2018-09-09T04:42:55.669Z,61.97
2018-09-09T04:45:25.071Z,61.40
2018-09-09T04:47:54.482Z,60.87
2018-09-09T04:50:24.081Z,61.83
2018-09-09T04:52:53.491Z,61.93
2018-09-09T04:55:22.987Z,61.99
2018-09-09T04:57:52.506Z,62.53
2018-09-09T05:00:21.996Z,61.55
2018-09-09T05:02:51.410Z,60.78
2018-09-09T05:05:21.106Z,60.53
2018-09-09T05:07:50.710Z,61.13
2018-09-09T05:10:21.342Z,61.59
2018-09-09T05:12:50.891Z,61.63
2018-09-09T05:15:20.284Z,62.22
2018-09-09T05:17:49.753Z,62.36
2018-09-09T05:20:19.217Z,62.51
2018-09-09T05:22:48.864Z,62.65
2018-09-09T05:25:18.215Z,62.30
2018-09-09T05:27:47.560Z,62.38
2018-09-09T05:30:17.172Z,62.26
2018-09-09T05:32:46.780Z,62.27
2018-09-09T05:35:16.283Z,62.65
2018-09-09T05:37:45.788Z,62.60
2018-09-09T05:40:15.242Z,62.77
2018-09-09T05:42:44.796Z,63.09
2018-09-09T05:45:14.274Z,63.19
2018-09-09T05:47:43.805Z,62.47
2018-09-09T05:50:13.314Z,62.07
2018-09-09T05:52:42.690Z,61.72
2018-09-09T05:55:12.316Z,60.77
2018-09-09T05:57:41.735Z,61.34
2018-09-09T06:00:11.325Z,61.41
2018-09-09T06:02:40.932Z,61.43
2018-09-09T06:05:10.335Z,61.41
2018-09-09T06:07:40.044Z,61.01
2018-09-09T06:10:09.509Z,61.66
2018-09-09T06:12:38.850Z,61.35
2018-09-09T06:15:08.182Z,60.31
2018-09-09T06:17:37.482Z,60.50
2018-09-09T06:20:06.836Z,60.55
2018-09-09T06:22:36.202Z,60.29
2018-09-09T06:25:05.858Z,59.02
2018-09-09T06:27:35.465Z,59.22
2018-09-09T06:30:05.174Z,58.90
2018-09-09T06:32:34.580Z,59.99
2018-09-09T06:35:03.918Z,59.92
2018-09-09T06:37:33.584Z,59.35
2018-09-09T06:40:03.189Z,58.43
2018-09-09T06:42:36.382Z,57.81
2018-09-09T06:45:05.962Z,57.17
2018-09-09T06:47:35.493Z,55.82
2018-09-09T06:50:04.996Z,56.62
2018-09-09T06:52:34.327Z,55.95
2018-09-09T06:55:04.929Z,55.58
2018-09-09T06:57:34.329Z,55.04
2018-09-09T07:00:03.733Z,54.34
2018-09-09T07:02:33.230Z,54.37
2018-09-09T07:05:03.146Z,53.72
2018-09-09T07:07:32.829Z,53.46
2018-09-09T07:10:02.424Z,53.04
2018-09-09T07:12:31.988Z,53.29
2018-09-09T07:15:01.452Z,53.02
2018-09-09T07:17:30.695Z,52.46
2018-09-09T07:20:00.173Z,53.53
2018-09-09T07:22:29.679Z,53.39
2018-09-09T07:24:59.181Z,52.92
2018-09-09T07:27:28.582Z,52.68
2018-09-09T07:29:57.883Z,52.91
2018-09-09T07:32:27.387Z,51.67
2018-09-09T07:34:57.096Z,50.75
2018-09-09T07:37:27.614Z,51.00
2018-09-09T07:39:57.032Z,51.14
2018-09-09T07:42:26.287Z,50.60
2018-09-09T07:44:55.727Z,49.27
2018-09-09T07:47:25.335Z,48.48
2018-09-09T07:49:54.737Z,48.39
2018-09-09T07:52:24.141Z,47.97
2018-09-09T07:54:53.542Z,47.39
2018-09-09T07:57:29.854Z,47.23
2018-09-09T07:59:59.307Z,48.50
2018-09-09T08:02:28.814Z,48.13
2018-09-09T08:04:58.217Z,47.48
2018-09-09T08:07:27.492Z,47.62
2018-09-09T08:09:56.914Z,47.12
2018-09-09T08:12:26.319Z,46.20
2018-09-09T08:14:55.821Z,46.98
2018-09-09T08:17:25.327Z,45.41
2018-09-09T08:19:54.932Z,45.42
2018-09-09T08:22:24.514Z,45.63
2018-09-09T08:24:54.362Z,45.87
2018-09-09T08:27:23.854Z,46.26
2018-09-09T08:29:53.461Z,46.00
2018-09-09T08:32:22.965Z,45.24
2018-09-09T08:34:52.620Z,44.57
2018-09-09T08:37:22.422Z,44.64
2018-09-09T08:39:52.438Z,44.53
2018-09-09T08:42:22.120Z,44.09
2018-09-09T08:44:51.612Z,43.29
2018-09-09T08:47:21.112Z,43.59
2018-09-09T08:49:50.622Z,44.58
2018-09-09T08:52:20.066Z,42.76
2018-09-09T08:54:49.577Z,41.80
2018-09-09T08:57:19.134Z,42.57
2018-09-09T08:59:48.588Z,42.66
2018-09-09T09:02:18.065Z,42.87
2018-09-09T09:04:48.740Z,41.95
2018-09-09T09:07:18.725Z,43.52
2018-09-09T09:09:48.460Z,43.51
2018-09-09T09:12:17.901Z,43.01
2018-09-09T09:14:47.498Z,42.82
2018-09-09T09:17:16.808Z,43.65
2018-09-09T09:19:46.211Z,42.47
2018-09-09T09:22:15.764Z,42.80
2018-09-09T09:24:45.117Z,42.57
2018-09-09T09:27:14.619Z,42.26
2018-09-09T09:29:49.551Z,42.98
2018-09-09T09:32:22.947Z,43.40
2018-09-09T09:34:53.283Z,41.68
2018-09-09T09:37:23.956Z,41.81
2018-09-09T09:39:54.223Z,40.40
2018-09-09T09:42:24.651Z,40.01
2018-09-09T09:44:54.174Z,40.54
2018-09-09T09:47:23.535Z,39.22
2018-09-09T09:49:53.065Z,39.63
2018-09-09T09:52:22.462Z,39.28
2018-09-09T09:54:52.067Z,37.58
2018-09-09T09:57:21.575Z,37.94
2018-09-09T09:59:51.078Z,37.67
2018-09-09T10:02:20.686Z,38.05
2018-09-09T10:04:50.055Z,36.89
2018-09-09T10:07:20.106Z,36.27
2018-09-09T10:09:49.608Z,37.25
2018-09-09T10:12:19.216Z,37.27
2018-09-09T10:14:48.924Z,36.49
2018-09-09T10:17:18.497Z,37.70
2018-09-09T10:19:48.045Z,35.63
2018-09-09T10:22:17.437Z,36.30
2018-09-09T10:24:46.975Z,36.43
2018-09-09T10:27:16.341Z,36.35
2018-09-09T10:29:45.946Z,36.06
2018-09-09T10:32:15.262Z,36.47
2018-09-09T10:34:44.555Z,37.57
2018-09-09T10:37:13.869Z,38.46
2018-09-09T10:39:44.171Z,38.54
2018-09-09T10:42:13.777Z,38.92
2018-09-09T10:44:43.387Z,38.40
2018-09-09T10:47:12.950Z,37.91
2018-09-09T10:49:42.291Z,39.15
2018-09-09T10:52:11.796Z,37.81
2018-09-09T10:54:41.299Z,37.93
2018-09-09T10:57:10.764Z,38.71
2018-09-09T10:59:40.206Z,37.03
2018-09-09T11:02:09.949Z,37.68
2018-09-09T11:04:39.316Z,38.88
2018-09-09T11:07:10.347Z,37.90
2018-09-09T11:09:39.862Z,37.50
2018-09-09T11:12:09.941Z,37.36
2018-09-09T11:14:39.382Z,36.81
2018-09-09T11:17:08.784Z,36.80
2018-09-09T11:19:38.096Z,35.45
2018-09-09T11:22:07.690Z,38.04
2018-09-09T11:24:37.339Z,37.71
2018-09-09T11:27:06.701Z,38.68
2018-09-09T11:29:36.100Z,37.14
2018-09-09T11:32:05.695Z,37.05
2018-09-09T11:34:35.111Z,36.46
2018-09-09T11:37:04.616Z,36.56
2018-09-09T11:39:34.095Z,37.53
2018-09-09T11:42:03.727Z,36.37
2018-09-09T11:44:32.988Z,36.21
2018-09-09T11:47:02.427Z,35.61
2018-09-09T11:49:32.956Z,36.49
2018-09-09T11:52:02.358Z,36.79
2018-09-09T11:54:31.847Z,36.65
2018-09-09T11:57:01.469Z,36.98
2018-09-09T11:59:30.974Z,37.05
2018-09-09T12:02:00.303Z,36.05
2018-09-09T12:04:29.862Z,36.69
2018-09-09T12:06:59.280Z,36.86
2018-09-09T12:09:28.552Z,36.62
2018-09-09T12:11:57.983Z,34.87
2018-09-09T12:14:27.490Z,35.32
2018-09-09T12:16:57.403Z,35.05
2018-09-09T12:19:26.906Z,36.30
2018-09-09T12:21:56.410Z,34.31
2018-09-09T12:24:25.711Z,35.28
2018-09-09T12:26:55.217Z,34.24
2018-09-09T12:29:24.617Z,35.74
2018-09-09T12:31:55.170Z,34.75
2018-09-09T12:34:25.219Z,34.97
2018-09-09T12:36:56.123Z,34.54
2018-09-09T12:39:25.671Z,34.53
2018-09-09T12:41:55.318Z,34.42
2018-09-09T12:44:30.087Z,33.91
2018-09-09T12:47:04.970Z,33.91
2018-09-09T12:49:35.466Z,33.88
2018-09-09T12:52:05.293Z,33.21
2018-09-09T12:54:34.713Z,33.37
2018-09-09T12:57:04.631Z,31.97
2018-09-09T12:59:34.337Z,33.19
2018-09-09T13:02:03.858Z,33.15
2018-09-09T13:04:35.734Z,33.86
2018-09-09T13:07:05.716Z,33.36
2018-09-09T13:09:35.047Z,34.23
2018-09-09T13:12:05.850Z,34.01
2018-09-09T13:14:35.357Z,32.35
2018-09-09T13:17:05.066Z,33.47
2018-09-09T13:19:34.570Z,32.16
2018-09-09T13:22:04.177Z,32.80
2018-09-09T13:24:33.693Z,33.19
2018-09-09T13:27:03.084Z,34.19
2018-09-09T13:29:32.630Z,33.78
2018-09-09T13:32:03.114Z,33.21
2018-09-09T13:34:32.589Z,32.02
2018-09-09T13:37:02.380Z,32.81
2018-09-09T13:39:31.730Z,32.36
2018-09-09T13:42:01.125Z,33.07
2018-09-09T13:44:30.950Z,32.94
2018-09-09T13:47:00.456Z,33.00
2018-09-09T13:49:31.184Z,32.93
2018-09-09T13:52:01.197Z,33.20
2018-09-09T13:54:31.961Z,33.41
2018-09-09T13:57:01.540Z,32.71
2018-09-09T13:59:31.247Z,33.01
2018-09-09T14:02:00.856Z,32.42
2018-09-09T14:04:30.372Z,31.81
2018-09-09T14:06:59.763Z,31.69
2018-09-09T14:09:29.361Z,31.73
2018-09-09T14:11:59.283Z,31.09
2018-09-09T14:14:28.732Z,32.39
2018-09-09T14:16:58.523Z,32.95
2018-09-09T14:19:28.080Z,32.70
2018-09-09T14:21:58.668Z,32.32
2018-09-09T14:24:28.255Z,31.52
2018-09-09T14:26:57.845Z,31.19
2018-09-09T14:29:27.463Z,31.03
2018-09-09T14:31:57.272Z,31.05
2018-09-09T14:34:26.874Z,32.00
2018-09-09T14:36:56.483Z,31.63
2018-09-09T14:39:25.983Z,31.40
2018-09-09T14:41:56.717Z,31.12
2018-09-09T14:44:31.723Z,31.86
2018-09-09T14:47:01.152Z,31.32
2018-09-09T14:49:30.656Z,30.98
2018-09-09T14:52:01.087Z,31.05
2018-09-09T14:54:30.587Z,31.01
2018-09-09T14:56:59.987Z,31.33
2018-09-09T14:59:29.554Z,30.34
2018-09-09T15:01:59.204Z,30.11
2018-09-09T15:04:28.810Z,30.67
2018-09-09T15:06:58.228Z,30.58
2018-09-09T15:09:28.443Z,31.30
2018-09-09T15:11:57.939Z,31.20
2018-09-09T15:14:27.441Z,30.11
2018-09-09T15:16:56.895Z,30.91
2018-09-09T15:19:26.406Z,30.86
2018-09-09T15:21:55.918Z,30.54
2018-09-09T15:24:25.363Z,31.06
2018-09-09T15:26:55.168Z,30.77
2018-09-09T15:29:24.638Z,30.23
2018-09-09T15:31:54.649Z,29.72
2018-09-09T15:34:24.210Z,30.27
2018-09-09T15:36:54.003Z,30.29
2018-09-09T15:39:23.407Z,30.43
2018-09-09T15:41:52.917Z,29.97
2018-09-09T15:44:22.625Z,30.76
2018-09-09T15:46:52.343Z,31.30
2018-09-09T15:49:22.243Z,30.93
2018-09-09T15:51:52.032Z,31.53
2018-09-09T15:54:21.785Z,31.58
2018-09-09T15:56:53.314Z,32.04
2018-09-09T15:59:24.166Z,32.63
2018-09-09T16:01:54.480Z,32.18
2018-09-09T16:04:25.180Z,30.97
2018-09-09T16:06:55.725Z,31.26
2018-09-09T16:09:25.142Z,31.18
2018-09-09T16:11:54.749Z,31.08
2018-09-09T16:14:25.073Z,31.35
2018-09-09T16:16:54.478Z,31.96
2018-09-09T16:19:24.084Z,32.47
2018-09-09T16:21:53.686Z,32.16
2018-09-09T16:24:23.037Z,32.13
2018-09-09T16:26:52.590Z,32.33
2018-09-09T16:29:21.908Z,31.48
2018-09-09T16:31:51.294Z,32.36
2018-09-09T16:34:20.596Z,32.63
2018-09-09T16:36:50.507Z,33.13
2018-09-09T16:39:20.012Z,33.33
2018-09-09T16:41:49.413Z,33.41
2018-09-09T16:44:18.667Z,34.77
2018-09-09T16:46:48.446Z,34.26
2018-09-09T16:49:17.668Z,33.79
2018-09-09T16:51:47.228Z,34.14
2018-09-09T16:54:16.887Z,34.50
2018-09-09T16:56:46.603Z,35.05
2018-09-09T16:59:16.256Z,34.42
2018-09-09T17:01:45.757Z,35.89
2018-09-09T17:04:15.159Z,36.53
2018-09-09T17:06:44.441Z,36.14
2018-09-09T17:09:13.859Z,36.79
2018-09-09T17:11:43.365Z,36.24
2018-09-09T17:14:13.026Z,36.65
2018-09-09T17:16:42.231Z,36.32
2018-09-09T17:19:11.614Z,36.48
2018-09-09T17:21:41.178Z,37.02
2018-09-09T17:24:10.793Z,36.99
2018-09-09T17:26:40.714Z,36.79
2018-09-09T17:29:10.204Z,36.65
2018-09-09T17:31:39.470Z,37.13
2018-09-09T17:34:09.085Z,37.42
2018-09-09T17:36:38.514Z,38.03
2018-09-09T17:39:09.768Z,39.17
2018-09-09T17:41:40.701Z,39.40
2018-09-09T17:44:10.302Z,40.21
2018-09-09T17:46:39.790Z,39.99
2018-09-09T17:49:09.797Z,40.32
2018-09-09T17:51:39.429Z,40.77
2018-09-09T17:54:09.037Z,40.59
2018-09-09T17:56:38.482Z,40.93
2018-09-09T17:59:16.961Z,41.50
2018-09-09T18:01:46.564Z,42.38
2018-09-09T18:04:15.964Z,42.46
2018-09-09T18:06:45.365Z,42.73
2018-09-09T18:09:16.917Z,42.79
2018-09-09T18:11:46.471Z,43.83
2018-09-09T18:14:17.366Z,43.48
2018-09-09T18:16:46.864Z,44.15
2018-09-09T18:19:16.456Z,43.84
2018-09-09T18:21:46.079Z,43.69
2018-09-09T18:24:15.584Z,44.51
2018-09-09T18:26:45.191Z,44.14
2018-09-09T18:29:15.411Z,44.51
2018-09-09T18:31:44.865Z,43.73
2018-09-09T18:34:14.319Z,44.21
2018-09-09T18:36:43.781Z,44.69
2018-09-09T18:39:13.489Z,45.22
2018-09-09T18:41:42.831Z,46.04
2018-09-09T18:44:13.436Z,47.00
2018-09-09T18:46:42.864Z,46.29
2018-09-09T18:49:12.471Z,47.24
2018-09-09T18:51:42.077Z,46.10
2018-09-09T18:54:11.685Z,46.77
2018-09-09T18:56:41.357Z,46.36
2018-09-09T18:59:10.821Z,45.27
2018-09-09T19:01:40.606Z,46.42
2018-09-09T19:04:10.214Z,46.31
2018-09-09T19:06:39.990Z,47.53
2018-09-09T19:09:09.427Z,48.08
2018-09-09T19:11:38.927Z,47.78
2018-09-09T19:14:08.442Z,48.59
2018-09-09T19:16:37.738Z,48.28
2018-09-09T19:19:07.343Z,47.93
2018-09-09T19:21:36.746Z,47.39
2018-09-09T19:24:06.206Z,48.40
2018-09-09T19:26:35.651Z,48.84
2018-09-09T19:29:05.321Z,49.11
2018-09-09T19:31:34.763Z,48.82
2018-09-09T19:34:04.478Z,48.95
2018-09-09T19:36:34.034Z,49.38
2018-09-09T19:39:09.704Z,48.36
2018-09-09T19:41:39.096Z,48.98
2018-09-09T19:44:08.596Z,48.49
2018-09-09T19:46:37.939Z,48.99
2018-09-09T19:49:07.851Z,49.32
2018-09-09T19:51:38.479Z,49.75
2018-09-09T19:54:08.395Z,49.02
2018-09-09T19:56:38.051Z,49.07
2018-09-09T19:59:07.611Z,49.74
2018-09-09T20:01:37.793Z,50.32
2018-09-09T20:04:07.433Z,50.71
2018-09-09T20:06:37.040Z,51.18
2018-09-09T20:09:07.874Z,50.73
2018-09-09T20:11:37.583Z,50.56
2018-09-09T20:14:07.306Z,50.76
2018-09-09T20:16:36.691Z,50.66
2018-09-09T20:19:06.826Z,51.19
2018-09-09T20:21:36.226Z,51.19
2018-09-09T20:24:05.726Z,51.82
2018-09-09T20:26:35.018Z,51.36
2018-09-09T20:29:04.528Z,51.55
2018-09-09T20:31:35.574Z,51.86
2018-09-09T20:34:05.069Z,51.94
2018-09-09T20:36:34.857Z,52.66
2018-09-09T20:39:05.842Z,52.64
2018-09-09T20:41:35.431Z,52.50
2018-09-09T20:44:05.444Z,52.89
2018-09-09T20:46:35.150Z,53.06
2018-09-09T20:49:04.867Z,53.29
2018-09-09T20:51:35.289Z,53.27
2018-09-09T20:54:09.228Z,53.29
2018-09-09T20:56:38.906Z,53.31
2018-09-09T20:59:08.717Z,53.56
2018-09-09T21:01:38.526Z,53.68
2018-09-09T21:04:08.134Z,53.80
2018-09-09T21:06:37.843Z,54.22
2018-09-09T21:09:09.426Z,54.18
2018-09-09T21:11:39.007Z,54.27
2018-09-09T21:14:10.046Z,54.39
2018-09-09T21:16:39.655Z,54.49
2018-09-09T21:19:09.167Z,54.46
2018-09-09T21:21:38.864Z,54.78
2018-09-09T21:24:08.304Z,54.03
2018-09-09T21:26:38.758Z,54.12
2018-09-09T21:29:08.296Z,53.97
2018-09-09T21:31:37.803Z,54.22
2018-09-09T21:34:07.409Z,54.68
2018-09-09T21:36:36.848Z,55.21
2018-09-09T21:39:08.838Z,54.93
2018-09-09T21:41:38.688Z,55.17
2018-09-09T21:44:08.296Z,55.50
2018-09-09T21:46:37.695Z,55.67
2018-09-09T21:49:08.274Z,55.63
2018-09-09T21:51:37.626Z,55.46
2018-09-09T21:54:07.438Z,55.24
2018-09-09T21:56:37.827Z,55.04
2018-09-09T21:59:07.265Z,55.66
2018-09-09T22:01:42.095Z,55.95
2018-09-09T22:04:11.496Z,55.70
2018-09-09T22:06:41.105Z,56.21
2018-09-09T22:09:10.711Z,56.22
2018-09-09T22:11:40.195Z,56.54
2018-09-09T22:14:09.822Z,56.58
2018-09-09T22:16:39.129Z,56.72
2018-09-09T22:19:08.731Z,56.58
2018-09-09T22:21:38.132Z,56.48
2018-09-09T22:24:09.682Z,56.57
2018-09-09T22:26:39.391Z,56.52
2018-09-09T22:29:08.896Z,56.11
2018-09-09T22:31:38.297Z,56.66
2018-09-09T22:34:07.763Z,56.82
2018-09-09T22:36:37.203Z,57.04
2018-09-09T22:39:09.002Z,57.65
2018-09-09T22:41:39.282Z,57.24
2018-09-09T22:44:10.791Z,57.21
2018-09-09T22:46:40.342Z,57.08
2018-09-09T22:49:09.948Z,57.97
2018-09-09T22:51:39.554Z,58.12
2018-09-09T22:54:09.043Z,58.43
2018-09-09T22:56:38.460Z,57.60
2018-09-09T22:59:07.864Z,58.17
2018-09-09T23:01:37.369Z,57.62
2018-09-09T23:04:06.957Z,58.55
2018-09-09T23:06:36.479Z,58.27
2018-09-09T23:09:08.451Z,58.18
2018-09-09T23:11:37.948Z,59.24
2018-09-09T23:14:07.757Z,59.27
2018-09-09T23:16:37.160Z,58.97
2018-09-09T23:19:06.751Z,58.92
2018-09-09T23:21:36.324Z,58.85
2018-09-09T23:24:05.569Z,58.61
2018-09-09T23:26:34.968Z,58.50
2018-09-09T23:29:04.479Z,58.58
2018-09-09T23:31:33.809Z,58.78
2018-09-09T23:34:03.176Z,59.22
2018-09-09T23:36:32.579Z,59.36
2018-09-09T23:39:01.982Z,59.23
2018-09-09T23:41:31.384Z,59.59
2018-09-09T23:44:00.785Z,60.00
2018-09-09T23:46:30.187Z,59.23
2018-09-09T23:48:59.589Z,59.15
2018-09-09T23:51:28.937Z,59.77
2018-09-09T23:53:58.292Z,59.60
2018-09-09T23:56:27.690Z,59.49
2018-09-09T23:58:57.096Z,59.64
